createdAt,value
2023-05-19T00:01:42.609Z,22.5
2023-05-19T00:07:35.109Z,22.4
2023-05-19T00:13:11.086Z,22.4
2023-05-19T00:19:02.950Z,22.3
2023-05-19T00:24:55.663Z,22.3
2023-05-19T00:30:47.246Z,22.3
2023-05-19T00:36:39.157Z,22.2
2023-05-19T00:42:15.815Z,22.2
2023-05-19T00:47:52.082Z,22.1
2023-05-19T00:53:28.791Z,22.1
2023-05-19T00:59:05.859Z,22.1
2023-05-19T01:04:58.468Z,22
2023-05-19T01:10:50.617Z,22
2023-05-19T01:16:26.595Z,21.9
2023-05-19T01:22:18.951Z,21.9
2023-05-19T01:27:54.467Z,21.9
2023-05-19T01:33:16.169Z,21.8
2023-05-19T01:38:51.873Z,21.8
2023-05-19T01:44:28.312Z,21.7
2023-05-19T01:50:06.938Z,21.6
2023-05-19T01:55:57.964Z,21.6
2023-05-19T02:01:34.379Z,21.6
2023-05-19T02:07:25.997Z,21.5
2023-05-19T02:13:01.790Z,21.4
2023-05-19T02:18:54.295Z,21.4
2023-05-19T02:24:30.523Z,21.3
2023-05-19T02:30:21.995Z,21.3
2023-05-19T02:35:58.874Z,21.3
2023-05-19T02:41:35.301Z,21.2
2023-05-19T02:58:09.182Z,21.1
2023-05-19T03:03:45.799Z,21.1
2023-05-19T03:09:38.404Z,21
2023-05-19T03:15:14.337Z,20.9
2023-05-19T03:21:06.664Z,20.9
2023-05-19T03:26:58.078Z,20.9
2023-05-19T03:32:51.240Z,20.8
2023-05-19T03:38:42.451Z,20.8
2023-05-19T03:44:34.639Z,20.8
2023-05-19T03:50:26.383Z,20.8
2023-05-19T03:56:02.037Z,20.7
2023-05-19T04:01:54.484Z,20.7
2023-05-19T04:07:46.521Z,20.7
2023-05-19T04:13:37.241Z,20.6
2023-05-19T04:19:29.912Z,20.6
2023-05-19T04:25:21.430Z,20.6
2023-05-19T04:31:12.215Z,20.6
2023-05-19T04:36:50.384Z,20.6
2023-05-19T04:42:44.339Z,20.5
2023-05-19T04:48:36.476Z,20.5
2023-05-19T04:54:29.905Z,20.5
2023-05-19T05:00:05.788Z,20.5
2023-05-19T05:05:57.896Z,20.4
2023-05-19T05:11:49.726Z,20.4
2023-05-19T05:17:41.399Z,20.4
2023-05-19T05:23:32.983Z,20.4
2023-05-19T05:29:09.729Z,20.4
2023-05-19T05:34:31.720Z,20.4
2023-05-19T05:40:22.605Z,20.4
2023-05-19T05:46:01.576Z,20.4
2023-05-19T05:52:04.748Z,20.4
2023-05-19T05:57:41.247Z,20.4
2023-05-19T06:03:18.008Z,20.4
2023-05-19T06:08:55.516Z,20.4
2023-05-19T06:14:47.552Z,20.4
2023-05-19T06:20:09.476Z,20.3
2023-05-19T06:26:01.989Z,20.3
2023-05-19T06:31:39.072Z,20.3
2023-05-19T06:37:34.858Z,20.3
2023-05-19T06:43:12.074Z,20.3
2023-05-19T06:48:50.317Z,20.3
2023-05-19T06:54:27.232Z,20.3
2023-05-19T07:00:12.108Z,20.3
2023-05-19T07:06:07.150Z,20.3
2023-05-19T07:11:45.688Z,20.3
2023-05-19T07:17:07.414Z,20.3
2023-05-19T07:22:27.115Z,20.3
2023-05-19T07:27:48.151Z,20.2
2023-05-19T07:33:27.928Z,20.2
2023-05-19T07:39:04.641Z,20.2
2023-05-19T07:44:10.840Z,20.3
2023-05-19T07:49:49.723Z,20.2
2023-05-19T07:55:11.192Z,20.2
2023-05-19T08:00:32.459Z,20.2
2023-05-19T08:06:10.089Z,20.3
2023-05-19T08:11:44.526Z,20.2
2023-05-19T08:17:22.120Z,20.2
2023-05-19T08:22:58.640Z,20.2
2023-05-19T08:28:33.905Z,20.2
2023-05-19T08:34:10.102Z,20.2
2023-05-19T08:39:31.103Z,20.3
2023-05-19T08:44:51.856Z,20.2
2023-05-19T08:50:31.182Z,20.2
2023-05-19T08:56:22.082Z,20.2
2023-05-19T09:02:00.605Z,20.2
2023-05-19T09:07:55.780Z,20.2
2023-05-19T09:13:32.373Z,20.2
2023-05-19T09:19:11.519Z,20.2
2023-05-19T09:24:48.473Z,20.2
2023-05-19T09:30:25.058Z,20.2
2023-05-19T09:36:01.233Z,20.2
2023-05-19T09:41:37.802Z,20.2
2023-05-19T09:47:30.287Z,20.2
2023-05-19T09:52:51.149Z,20.2
2023-05-19T09:58:31.060Z,20.2
2023-05-19T10:04:24.562Z,20.2
2023-05-19T10:10:01.556Z,20.2
2023-05-19T10:15:46.768Z,20.2
2023-05-19T10:21:15.817Z,20.1
2023-05-19T10:27:07.426Z,20.2
2023-05-19T10:33:01.473Z,20.2
2023-05-19T10:38:38.325Z,20.1
2023-05-19T10:44:15.606Z,20.2
2023-05-19T10:50:07.639Z,20.2
2023-05-19T10:56:00.037Z,20.1
2023-05-19T11:01:38.426Z,20.2
2023-05-19T11:07:36.890Z,20.2
2023-05-19T11:13:42.495Z,20.2
2023-05-19T11:19:34.848Z,20.1
2023-05-19T11:25:30.028Z,20.2
2023-05-19T11:31:22.961Z,20.1
2023-05-19T11:37:15.940Z,20.2
2023-05-19T11:43:08.201Z,20.2
2023-05-19T11:49:19.279Z,20.2
2023-05-19T11:55:13.400Z,20.1
2023-05-19T12:01:20.490Z,20.1
2023-05-19T12:07:19.207Z,20.2
2023-05-19T12:13:12.750Z,20.1
2023-05-19T12:19:06.410Z,20.2
2023-05-19T12:24:51.000Z,20.2
2023-05-19T12:30:42.962Z,20.1
2023-05-19T12:36:36.674Z,20.1
2023-05-19T12:42:29.005Z,20.1
2023-05-19T12:48:21.201Z,20.1
2023-05-19T12:54:16.185Z,20.1
2023-05-19T13:00:24.163Z,20.1
2023-05-19T13:06:19.167Z,20.1
2023-05-19T13:12:12.078Z,20.1
2023-05-19T13:18:04.635Z,20.1
2023-05-19T13:24:10.407Z,20.1
2023-05-19T13:29:31.901Z,20.1
2023-05-19T13:35:08.817Z,20.1
2023-05-19T13:41:01.412Z,20.1
2023-05-19T13:47:04.379Z,20.1
2023-05-19T13:52:56.685Z,20.1
2023-05-19T13:58:49.921Z,20.1
2023-05-19T14:04:41.439Z,20.1
2023-05-19T14:10:18.920Z,20.1
2023-05-19T14:16:39.180Z,20.1
2023-05-19T14:22:33.844Z,20.1
2023-05-19T14:28:26.733Z,20.1
2023-05-19T14:34:08.497Z,20.1
2023-05-19T14:40:00.406Z,20.1
2023-05-19T14:45:37.558Z,20.1
2023-05-19T14:51:18.233Z,20.1
2023-05-19T14:56:55.878Z,20.1
2023-05-19T15:02:46.028Z,20.1
2023-05-19T15:08:26.223Z,20.1
2023-05-19T15:14:18.665Z,20.1
2023-05-19T15:20:29.637Z,20.1
2023-05-19T15:26:20.779Z,20.1
2023-05-19T15:31:57.610Z,20.1
2023-05-19T15:37:33.807Z,20.1
2023-05-19T15:43:25.098Z,20.1
2023-05-19T15:49:17.375Z,20.1
2023-05-19T15:55:09.083Z,20.1
2023-05-19T16:00:44.836Z,20.1
2023-05-19T16:06:24.185Z,20.1
2023-05-19T16:12:16.231Z,20.1
2023-05-19T16:18:08.136Z,20.1
2023-05-19T16:23:45.856Z,20.1
2023-05-19T16:29:21.882Z,20.1
2023-05-19T16:34:58.170Z,20.1
2023-05-19T16:40:35.640Z,20.1
2023-05-19T16:46:12.857Z,20.1
2023-05-19T16:51:50.342Z,20.1
2023-05-19T16:57:42.540Z,20.1
2023-05-19T17:03:20.699Z,20.1
2023-05-19T17:08:28.494Z,20.1
2023-05-19T17:14:05.914Z,20.1
2023-05-19T17:19:42.635Z,20.1
2023-05-19T17:25:18.529Z,20.1
2023-05-19T17:31:10.598Z,20.1
2023-05-19T17:36:50.070Z,20.1
2023-05-19T17:42:25.809Z,20.1
2023-05-19T17:48:17.313Z,20.1
2023-05-19T17:53:38.251Z,20.1
2023-05-19T17:58:43.078Z,20
2023-05-19T18:04:20.659Z,20
2023-05-19T18:10:00.029Z,20.1
2023-05-19T18:15:36.073Z,20.1
2023-05-19T18:21:13.350Z,20.1
2023-05-19T18:26:49.566Z,20.1
2023-05-19T18:32:25.241Z,20
2023-05-19T18:37:46.229Z,20.1
2023-05-19T18:43:06.517Z,20.1
2023-05-19T18:48:11.907Z,20.1
2023-05-19T18:53:17.219Z,20.1
2023-05-19T18:58:23.616Z,20.1
2023-05-19T19:03:28.473Z,20.1
2023-05-19T19:08:33.847Z,20.1
2023-05-19T19:14:12.364Z,20
2023-05-19T19:19:48.395Z,20.1
2023-05-19T19:25:24.148Z,20.1
2023-05-19T19:31:00.951Z,20.1
2023-05-19T19:36:38.913Z,20
2023-05-19T19:42:15.321Z,20.1
2023-05-19T19:47:52.378Z,20
2023-05-19T19:53:43.472Z,20
2023-05-19T19:59:03.879Z,20
2023-05-19T20:05:15.306Z,20
2023-05-19T20:10:35.416Z,20.1
2023-05-19T20:16:12.819Z,20
2023-05-19T20:21:51.767Z,20.1
2023-05-19T20:27:48.089Z,20.1
2023-05-19T20:33:26.628Z,20
2023-05-19T20:38:48.997Z,20.1
2023-05-19T20:44:24.585Z,20.1
2023-05-19T20:50:01.286Z,20.1
2023-05-19T20:55:37.798Z,20.1
2023-05-19T21:01:13.105Z,20.1
2023-05-19T21:07:06.007Z,20.1
2023-05-19T21:12:42.179Z,20
2023-05-19T21:18:17.823Z,20
2023-05-19T21:23:54.454Z,20
2023-05-19T21:29:46.200Z,19.9
2023-05-19T21:35:37.238Z,20
2023-05-19T21:41:24.785Z,20
2023-05-19T21:47:18.933Z,20
2023-05-19T21:52:54.757Z,20
2023-05-19T21:58:46.199Z,20
2023-05-19T22:04:39.146Z,20
2023-05-19T22:10:29.892Z,20
2023-05-19T22:16:20.718Z,20
2023-05-19T22:22:05.975Z,20
2023-05-19T22:28:01.745Z,20
2023-05-19T22:33:56.225Z,20
2023-05-19T22:39:49.270Z,20
2023-05-19T22:45:41.201Z,20
2023-05-19T22:51:35.689Z,20
2023-05-19T22:57:28.229Z,20
2023-05-19T23:03:19.053Z,20
2023-05-19T23:09:09.921Z,20
2023-05-19T23:15:02.107Z,20
2023-05-19T23:20:54.450Z,20
2023-05-19T23:26:46.650Z,20
2023-05-19T23:32:40.547Z,20
2023-05-19T23:38:31.461Z,19.9
2023-05-19T23:44:22.743Z,20
2023-05-19T23:50:14.540Z,20
2023-05-19T23:56:06.460Z,20
